sensor_id;sensor_type;location;lat;lon;timestamp;temperature;humidity
48043;DHT22;33988;47.992;8.820;2023-01-08T00:00:16;7.30;63.90
48043;DHT22;33988;47.992;8.820;2023-01-08T00:02:45;7.30;63.90
48043;DHT22;33988;47.992;8.820;2023-01-08T00:05:17;7.30;63.90
48043;DHT22;33988;47.992;8.820;2023-01-08T00:07:44;7.30;63.90
48043;DHT22;33988;47.992;8.820;2023-01-08T00:10:11;7.20;63.90
48043;DHT22;33988;47.992;8.820;2023-01-08T00:12:38;7.20;63.90
48043;DHT22;33988;47.992;8.820;2023-01-08T00:15:06;7.20;63.90
48043;DHT22;33988;47.992;8.820;2023-01-08T00:17:36;7.20;64.00
48043;DHT22;33988;47.992;8.820;2023-01-08T00:20:03;7.20;64.10
48043;DHT22;33988;47.992;8.820;2023-01-08T00:22:32;7.20;64.10
48043;DHT22;33988;47.992;8.820;2023-01-08T00:25:00;7.20;64.30
48043;DHT22;33988;47.992;8.820;2023-01-08T00:27:26;7.20;64.20
48043;DHT22;33988;47.992;8.820;2023-01-08T00:29:53;7.20;64.30
48043;DHT22;33988;47.992;8.820;2023-01-08T00:32:20;7.20;64.20
48043;DHT22;33988;47.992;8.820;2023-01-08T00:34:47;7.20;64.30
48043;DHT22;33988;47.992;8.820;2023-01-08T00:37:17;7.20;64.30
48043;DHT22;33988;47.992;8.820;2023-01-08T00:39:45;7.20;64.30
48043;DHT22;33988;47.992;8.820;2023-01-08T00:42:12;7.20;64.30
48043;DHT22;33988;47.992;8.820;2023-01-08T00:44:39;7.10;64.10
48043;DHT22;33988;47.992;8.820;2023-01-08T00:47:09;7.20;64.10
48043;DHT22;33988;47.992;8.820;2023-01-08T00:49:40;7.10;64.10
48043;DHT22;33988;47.992;8.820;2023-01-08T00:52:11;7.10;64.10
48043;DHT22;33988;47.992;8.820;2023-01-08T00:54:38;7.10;64.00
48043;DHT22;33988;47.992;8.820;2023-01-08T00:57:05;7.10;64.10
48043;DHT22;33988;47.992;8.820;2023-01-08T00:59:51;7.10;64.10
48043;DHT22;33988;47.992;8.820;2023-01-08T01:02:21;7.10;64.20
48043;DHT22;33988;47.992;8.820;2023-01-08T01:04:47;7.10;64.10
48043;DHT22;33988;47.992;8.820;2023-01-08T01:07:14;7.10;64.20
48043;DHT22;33988;47.992;8.820;2023-01-08T01:09:41;7.10;64.10
48043;DHT22;33988;47.992;8.820;2023-01-08T01:12:08;7.00;64.10
48043;DHT22;33988;47.992;8.820;2023-01-08T01:14:39;7.00;64.10
48043;DHT22;33988;47.992;8.820;2023-01-08T01:17:06;7.00;64.10
48043;DHT22;33988;47.992;8.820;2023-01-08T01:19:32;7.00;65.00
48043;DHT22;33988;47.992;8.820;2023-01-08T01:21:59;7.00;64.40
48043;DHT22;33988;47.992;8.820;2023-01-08T01:24:28;7.00;64.40
48043;DHT22;33988;47.992;8.820;2023-01-08T01:26:55;7.00;64.40
48043;DHT22;33988;47.992;8.820;2023-01-08T01:29:23;7.00;64.40
48043;DHT22;33988;47.992;8.820;2023-01-08T01:31:50;7.00;64.30
48043;DHT22;33988;47.992;8.820;2023-01-08T01:34:17;7.00;64.30
48043;DHT22;33988;47.992;8.820;2023-01-08T01:36:44;7.00;64.40
48043;DHT22;33988;47.992;8.820;2023-01-08T01:39:13;7.00;64.40
48043;DHT22;33988;47.992;8.820;2023-01-08T01:41:46;7.00;64.40
48043;DHT22;33988;47.992;8.820;2023-01-08T01:52:32;6.90;64.30
48043;DHT22;33988;47.992;8.820;2023-01-08T01:55:05;6.90;64.30
48043;DHT22;33988;47.992;8.820;2023-01-08T01:57:36;6.80;64.30
48043;DHT22;33988;47.992;8.820;2023-01-08T02:00:07;6.80;64.20
48043;DHT22;33988;47.992;8.820;2023-01-08T02:02:37;6.80;64.20
48043;DHT22;33988;47.992;8.820;2023-01-08T02:05:07;6.80;64.40
48043;DHT22;33988;47.992;8.820;2023-01-08T02:10:50;6.80;64.40
48043;DHT22;33988;47.992;8.820;2023-01-08T02:13:27;6.70;64.40
48043;DHT22;33988;47.992;8.820;2023-01-08T02:16:02;6.70;64.40
48043;DHT22;33988;47.992;8.820;2023-01-08T02:18:49;6.70;64.40
48043;DHT22;33988;47.992;8.820;2023-01-08T02:21:36;6.70;64.30
48043;DHT22;33988;47.992;8.820;2023-01-08T02:27:09;6.80;64.50
48043;DHT22;33988;47.992;8.820;2023-01-08T02:29:42;6.70;64.30
48043;DHT22;33988;47.992;8.820;2023-01-08T02:32:09;6.70;64.20
48043;DHT22;33988;47.992;8.820;2023-01-08T02:34:38;6.70;64.20
48043;DHT22;33988;47.992;8.820;2023-01-08T02:37:07;6.80;64.90
48043;DHT22;33988;47.992;8.820;2023-01-08T02:39:47;6.80;64.20
48043;DHT22;33988;47.992;8.820;2023-01-08T02:45:40;6.70;64.00
48043;DHT22;33988;47.992;8.820;2023-01-08T02:54:02;6.70;63.90
48043;DHT22;33988;47.992;8.820;2023-01-08T02:56:35;6.70;63.90
48043;DHT22;33988;47.992;8.820;2023-01-08T02:59:08;6.70;63.90
48043;DHT22;33988;47.992;8.820;2023-01-08T03:01:38;6.60;63.80
48043;DHT22;33988;47.992;8.820;2023-01-08T03:04:17;6.60;63.70
48043;DHT22;33988;47.992;8.820;2023-01-08T03:06:47;6.60;63.70
48043;DHT22;33988;47.992;8.820;2023-01-08T03:09:17;6.60;63.70
48043;DHT22;33988;47.992;8.820;2023-01-08T03:11:55;6.60;63.80
48043;DHT22;33988;47.992;8.820;2023-01-08T03:14:36;6.60;63.80
48043;DHT22;33988;47.992;8.820;2023-01-08T03:17:28;6.60;63.90
48043;DHT22;33988;47.992;8.820;2023-01-08T03:20:02;6.60;63.80
48043;DHT22;33988;47.992;8.820;2023-01-08T03:22:33;6.60;63.80
48043;DHT22;33988;47.992;8.820;2023-01-08T03:25:07;6.60;63.70
48043;DHT22;33988;47.992;8.820;2023-01-08T03:27:42;6.60;63.70
48043;DHT22;33988;47.992;8.820;2023-01-08T03:30:13;6.60;63.60
48043;DHT22;33988;47.992;8.820;2023-01-08T03:32:42;6.60;63.60
48043;DHT22;33988;47.992;8.820;2023-01-08T03:35:16;6.60;63.70
48043;DHT22;33988;47.992;8.820;2023-01-08T03:37:55;6.60;63.70
48043;DHT22;33988;47.992;8.820;2023-01-08T03:40:33;6.60;63.70
48043;DHT22;33988;47.992;8.820;2023-01-08T03:43:06;6.60;63.70
48043;DHT22;33988;47.992;8.820;2023-01-08T03:45:36;6.60;63.60
48043;DHT22;33988;47.992;8.820;2023-01-08T03:48:05;6.60;63.60
48043;DHT22;33988;47.992;8.820;2023-01-08T03:50:38;6.60;63.60
48043;DHT22;33988;47.992;8.820;2023-01-08T03:53:07;6.60;63.60
48043;DHT22;33988;47.992;8.820;2023-01-08T03:55:37;6.60;63.50
48043;DHT22;33988;47.992;8.820;2023-01-08T03:58:06;6.60;63.50
48043;DHT22;33988;47.992;8.820;2023-01-08T04:00:36;6.60;63.50
48043;DHT22;33988;47.992;8.820;2023-01-08T04:03:05;6.60;63.60
48043;DHT22;33988;47.992;8.820;2023-01-08T04:05:37;6.60;63.60
48043;DHT22;33988;47.992;8.820;2023-01-08T04:08:04;6.60;63.50
48043;DHT22;33988;47.992;8.820;2023-01-08T04:10:34;6.60;63.50
48043;DHT22;33988;47.992;8.820;2023-01-08T04:13:01;6.50;63.40
48043;DHT22;33988;47.992;8.820;2023-01-08T04:15:28;6.50;63.50
48043;DHT22;33988;47.992;8.820;2023-01-08T04:17:55;6.40;63.50
48043;DHT22;33988;47.992;8.820;2023-01-08T04:20:24;6.40;63.60
48043;DHT22;33988;47.992;8.820;2023-01-08T04:22:51;6.40;63.60
48043;DHT22;33988;47.992;8.820;2023-01-08T04:25:18;6.40;63.70
48043;DHT22;33988;47.992;8.820;2023-01-08T04:27:45;6.40;63.90
48043;DHT22;33988;47.992;8.820;2023-01-08T04:30:14;6.40;63.90
48043;DHT22;33988;47.992;8.820;2023-01-08T04:32:46;6.50;64.00
48043;DHT22;33988;47.992;8.820;2023-01-08T04:35:15;6.40;64.00
48043;DHT22;33988;47.992;8.820;2023-01-08T04:37:44;6.50;64.10
48043;DHT22;33988;47.992;8.820;2023-01-08T04:40:11;6.30;64.20
48043;DHT22;33988;47.992;8.820;2023-01-08T04:42:38;6.50;64.20
48043;DHT22;33988;47.992;8.820;2023-01-08T04:45:08;6.50;64.20
48043;DHT22;33988;47.992;8.820;2023-01-08T04:47:40;6.50;64.20
48043;DHT22;33988;47.992;8.820;2023-01-08T04:50:09;6.60;64.30
48043;DHT22;33988;47.992;8.820;2023-01-08T04:52:41;6.60;64.30
48043;DHT22;33988;47.992;8.820;2023-01-08T04:55:08;6.60;64.30
48043;DHT22;33988;47.992;8.820;2023-01-08T04:57:35;6.60;64.20
48043;DHT22;33988;47.992;8.820;2023-01-08T05:00:02;6.60;64.20
48043;DHT22;33988;47.992;8.820;2023-01-08T05:02:32;6.70;64.20
48043;DHT22;33988;47.992;8.820;2023-01-08T05:05:05;6.70;64.20
48043;DHT22;33988;47.992;8.820;2023-01-08T05:07:35;6.70;64.20
48043;DHT22;33988;47.992;8.820;2023-01-08T05:10:05;6.70;64.10
48043;DHT22;33988;47.992;8.820;2023-01-08T05:12:36;6.70;64.00
48043;DHT22;33988;47.992;8.820;2023-01-08T05:15:03;6.80;64.90
48043;DHT22;33988;47.992;8.820;2023-01-08T05:17:32;6.80;64.10
48043;DHT22;33988;47.992;8.820;2023-01-08T05:20:04;6.80;64.00
48043;DHT22;33988;47.992;8.820;2023-01-08T05:22:31;6.80;64.00
48043;DHT22;33988;47.992;8.820;2023-01-08T05:24:58;6.80;64.00
48043;DHT22;33988;47.992;8.820;2023-01-08T05:27:27;6.90;64.00
48043;DHT22;33988;47.992;8.820;2023-01-08T05:29:54;6.90;64.00
48043;DHT22;33988;47.992;8.820;2023-01-08T05:32:21;6.90;64.00
48043;DHT22;33988;47.992;8.820;2023-01-08T05:34:48;6.90;64.00
48043;DHT22;33988;47.992;8.820;2023-01-08T05:37:15;6.90;64.00
48043;DHT22;33988;47.992;8.820;2023-01-08T05:39:45;6.90;64.00
48043;DHT22;33988;47.992;8.820;2023-01-08T05:42:14;6.90;63.90
48043;DHT22;33988;47.992;8.820;2023-01-08T05:44:41;6.80;63.90
48043;DHT22;33988;47.992;8.820;2023-01-08T05:47:10;6.80;63.90
48043;DHT22;33988;47.992;8.820;2023-01-08T05:49:37;6.70;64.00
48043;DHT22;33988;47.992;8.820;2023-01-08T05:52:06;6.80;64.30
48043;DHT22;33988;47.992;8.820;2023-01-08T05:54:35;6.80;64.50
48043;DHT22;33988;47.992;8.820;2023-01-08T05:57:02;6.80;64.60
48043;DHT22;33988;47.992;8.820;2023-01-08T05:59:33;6.80;64.80
48043;DHT22;33988;47.992;8.820;2023-01-08T06:02:06;6.90;65.00
48043;DHT22;33988;47.992;8.820;2023-01-08T06:04:34;6.90;65.00
48043;DHT22;33988;47.992;8.820;2023-01-08T06:07:01;6.90;65.00
48043;DHT22;33988;47.992;8.820;2023-01-08T06:09:30;7.00;65.00
48043;DHT22;33988;47.992;8.820;2023-01-08T06:11:57;7.00;65.00
48043;DHT22;33988;47.992;8.820;2023-01-08T06:14:26;7.10;65.00
48043;DHT22;33988;47.992;8.820;2023-01-08T06:16:56;7.10;65.00
48043;DHT22;33988;47.992;8.820;2023-01-08T06:19:23;7.10;64.90
48043;DHT22;33988;47.992;8.820;2023-01-08T06:21:49;7.10;64.80
48043;DHT22;33988;47.992;8.820;2023-01-08T06:24:21;7.20;64.90
48043;DHT22;33988;47.992;8.820;2023-01-08T06:26:48;7.20;64.90
48043;DHT22;33988;47.992;8.820;2023-01-08T06:29:15;7.20;64.80
48043;DHT22;33988;47.992;8.820;2023-01-08T06:31:42;7.20;64.80
48043;DHT22;33988;47.992;8.820;2023-01-08T06:34:09;7.20;64.80
48043;DHT22;33988;47.992;8.820;2023-01-08T06:36:39;7.30;64.80
48043;DHT22;33988;47.992;8.820;2023-01-08T06:39:06;7.30;64.80
48043;DHT22;33988;47.992;8.820;2023-01-08T06:41:36;7.30;64.80
48043;DHT22;33988;47.992;8.820;2023-01-08T06:44:03;7.30;64.80
48043;DHT22;33988;47.992;8.820;2023-01-08T06:46:30;7.30;64.70
48043;DHT22;33988;47.992;8.820;2023-01-08T06:48:57;7.40;64.80
48043;DHT22;33988;47.992;8.820;2023-01-08T06:51:24;7.40;64.70
48043;DHT22;33988;47.992;8.820;2023-01-08T06:53:51;7.40;64.70
48043;DHT22;33988;47.992;8.820;2023-01-08T06:56:18;7.40;64.70
48043;DHT22;33988;47.992;8.820;2023-01-08T06:58:47;7.40;64.60
48043;DHT22;33988;47.992;8.820;2023-01-08T07:01:16;7.40;64.60
48043;DHT22;33988;47.992;8.820;2023-01-08T07:03:44;7.40;64.60
48043;DHT22;33988;47.992;8.820;2023-01-08T07:06:15;7.50;64.70
48043;DHT22;33988;47.992;8.820;2023-01-08T07:08:44;7.50;64.70
48043;DHT22;33988;47.992;8.820;2023-01-08T07:11:12;7.50;64.80
48043;DHT22;33988;47.992;8.820;2023-01-08T07:13:39;7.50;64.70
48043;DHT22;33988;47.992;8.820;2023-01-08T07:16:10;7.50;64.60
48043;DHT22;33988;47.992;8.820;2023-01-08T07:18:46;7.50;64.60
48043;DHT22;33988;47.992;8.820;2023-01-08T07:21:17;7.50;64.60
48043;DHT22;33988;47.992;8.820;2023-01-08T07:23:50;7.50;64.60
48043;DHT22;33988;47.992;8.820;2023-01-08T07:26:17;7.60;64.70
48043;DHT22;33988;47.992;8.820;2023-01-08T07:28:46;7.60;64.70
48043;DHT22;33988;47.992;8.820;2023-01-08T07:31:15;7.60;64.60
48043;DHT22;33988;47.992;8.820;2023-01-08T07:33:42;7.60;64.60
48043;DHT22;33988;47.992;8.820;2023-01-08T07:36:09;7.60;64.60
48043;DHT22;33988;47.992;8.820;2023-01-08T07:38:41;7.60;64.60
48043;DHT22;33988;47.992;8.820;2023-01-08T07:41:08;7.60;64.60
48043;DHT22;33988;47.992;8.820;2023-01-08T07:43:37;7.60;64.60
48043;DHT22;33988;47.992;8.820;2023-01-08T07:46:07;7.60;64.60
48043;DHT22;33988;47.992;8.820;2023-01-08T07:48:34;7.70;64.70
48043;DHT22;33988;47.992;8.820;2023-01-08T07:51:05;7.70;64.70
48043;DHT22;33988;47.992;8.820;2023-01-08T07:53:38;7.70;64.70
48043;DHT22;33988;47.992;8.820;2023-01-08T07:56:09;7.70;64.80
48043;DHT22;33988;47.992;8.820;2023-01-08T07:58:38;7.70;64.80
48043;DHT22;33988;47.992;8.820;2023-01-08T08:01:09;7.70;64.70
48043;DHT22;33988;47.992;8.820;2023-01-08T08:03:39;7.70;64.70
48043;DHT22;33988;47.992;8.820;2023-01-08T08:06:09;7.60;64.90
48043;DHT22;33988;47.992;8.820;2023-01-08T08:08:36;7.70;64.70
48043;DHT22;33988;47.992;8.820;2023-01-08T08:11:03;7.70;65.40
48043;DHT22;33988;47.992;8.820;2023-01-08T08:13:30;7.80;64.70
48043;DHT22;33988;47.992;8.820;2023-01-08T08:16:03;7.80;64.70
48043;DHT22;33988;47.992;8.820;2023-01-08T08:18:31;7.80;64.80
48043;DHT22;33988;47.992;8.820;2023-01-08T08:20:58;7.80;64.80
48043;DHT22;33988;47.992;8.820;2023-01-08T08:23:25;7.80;64.80
48043;DHT22;33988;47.992;8.820;2023-01-08T08:25:52;7.80;64.80
48043;DHT22;33988;47.992;8.820;2023-01-08T08:28:23;7.80;64.90
48043;DHT22;33988;47.992;8.820;2023-01-08T08:30:52;7.80;64.90
48043;DHT22;33988;47.992;8.820;2023-01-08T08:33:21;7.80;65.00
48043;DHT22;33988;47.992;8.820;2023-01-08T08:35:53;7.70;65.30
48043;DHT22;33988;47.992;8.820;2023-01-08T08:38:22;7.80;65.00
48043;DHT22;33988;47.992;8.820;2023-01-08T08:40:53;7.80;65.10
48043;DHT22;33988;47.992;8.820;2023-01-08T08:43:20;7.90;65.10
48043;DHT22;33988;47.992;8.820;2023-01-08T08:45:47;7.90;65.20
48043;DHT22;33988;47.992;8.820;2023-01-08T08:48:13;7.90;65.10
48043;DHT22;33988;47.992;8.820;2023-01-08T08:50:42;7.90;66.00
48043;DHT22;33988;47.992;8.820;2023-01-08T08:53:11;8.00;65.10
48043;DHT22;33988;47.992;8.820;2023-01-08T08:55:38;8.00;65.10
48043;DHT22;33988;47.992;8.820;2023-01-08T08:58:07;8.00;65.20
48043;DHT22;33988;47.992;8.820;2023-01-08T09:00:38;8.00;65.30
48043;DHT22;33988;47.992;8.820;2023-01-08T09:03:11;8.00;65.30
48043;DHT22;33988;47.992;8.820;2023-01-08T09:05:41;8.00;65.40
48043;DHT22;33988;47.992;8.820;2023-01-08T09:08:13;8.00;65.50
48043;DHT22;33988;47.992;8.820;2023-01-08T09:10:42;8.10;65.60
48043;DHT22;33988;47.992;8.820;2023-01-08T09:13:13;8.10;65.70
48043;DHT22;33988;47.992;8.820;2023-01-08T09:15:42;8.20;65.70
48043;DHT22;33988;47.992;8.820;2023-01-08T09:18:10;8.20;65.80
48043;DHT22;33988;47.992;8.820;2023-01-08T09:20:37;8.20;65.80
48043;DHT22;33988;47.992;8.820;2023-01-08T09:23:04;8.30;65.90
48043;DHT22;33988;47.992;8.820;2023-01-08T09:25:32;8.30;65.80
48043;DHT22;33988;47.992;8.820;2023-01-08T09:28:05;8.30;65.90
48043;DHT22;33988;47.992;8.820;2023-01-08T09:30:34;8.20;66.10
48043;DHT22;33988;47.992;8.820;2023-01-08T09:33:02;8.30;65.80
48043;DHT22;33988;47.992;8.820;2023-01-08T09:35:33;8.40;65.70
48043;DHT22;33988;47.992;8.820;2023-01-08T09:38:02;8.40;65.80
48043;DHT22;33988;47.992;8.820;2023-01-08T09:41:00;8.40;65.90
48043;DHT22;33988;47.992;8.820;2023-01-08T09:43:34;8.40;66.40
48043;DHT22;33988;47.992;8.820;2023-01-08T09:46:06;8.40;67.10
48043;DHT22;33988;47.992;8.820;2023-01-08T09:48:36;8.50;66.40
48043;DHT22;33988;47.992;8.820;2023-01-08T09:51:17;8.50;66.60
48043;DHT22;33988;47.992;8.820;2023-01-08T09:53:52;8.60;66.90
48043;DHT22;33988;47.992;8.820;2023-01-08T09:56:20;8.60;66.90
48043;DHT22;33988;47.992;8.820;2023-01-08T09:58:54;8.70;67.10
48043;DHT22;33988;47.992;8.820;2023-01-08T10:01:30;8.80;67.20
48043;DHT22;33988;47.992;8.820;2023-01-08T10:04:18;8.80;67.20
48043;DHT22;33988;47.992;8.820;2023-01-08T10:06:59;8.90;67.50
48043;DHT22;33988;47.992;8.820;2023-01-08T10:09:33;9.00;67.50
48043;DHT22;33988;47.992;8.820;2023-01-08T10:12:08;9.10;67.30
48043;DHT22;33988;47.992;8.820;2023-01-08T10:14:40;9.10;67.40
48043;DHT22;33988;47.992;8.820;2023-01-08T10:20:27;9.30;67.50
48043;DHT22;33988;47.992;8.820;2023-01-08T10:23:18;9.40;67.60
48043;DHT22;33988;47.992;8.820;2023-01-08T10:25:58;9.40;68.00
48043;DHT22;33988;47.992;8.820;2023-01-08T10:28:31;9.50;67.80
48043;DHT22;33988;47.992;8.820;2023-01-08T10:31:13;9.60;67.70
48043;DHT22;33988;47.992;8.820;2023-01-08T10:33:48;9.70;67.80
48043;DHT22;33988;47.992;8.820;2023-01-08T10:36:18;9.80;67.70
48043;DHT22;33988;47.992;8.820;2023-01-08T10:38:58;9.80;67.70
48043;DHT22;33988;47.992;8.820;2023-01-08T10:41:26;9.90;67.70
48043;DHT22;33988;47.992;8.820;2023-01-08T10:44:02;10.00;67.60
48043;DHT22;33988;47.992;8.820;2023-01-08T10:46:47;10.00;67.50
48043;DHT22;33988;47.992;8.820;2023-01-08T10:49:39;10.10;68.30
48043;DHT22;33988;47.992;8.820;2023-01-08T10:52:28;10.20;67.80
48043;DHT22;33988;47.992;8.820;2023-01-08T10:58:00;10.30;67.90
48043;DHT22;33988;47.992;8.820;2023-01-08T11:00:34;10.30;67.60
48043;DHT22;33988;47.992;8.820;2023-01-08T11:03:27;10.40;67.50
48043;DHT22;33988;47.992;8.820;2023-01-08T11:06:12;10.50;67.60
48043;DHT22;33988;47.992;8.820;2023-01-08T11:08:57;10.50;67.50
48043;DHT22;33988;47.992;8.820;2023-01-08T11:11:35;10.50;67.40
48043;DHT22;33988;47.992;8.820;2023-01-08T11:14:20;10.60;67.30
48043;DHT22;33988;47.992;8.820;2023-01-08T11:16:48;10.60;67.30
48043;DHT22;33988;47.992;8.820;2023-01-08T11:19:25;10.60;67.20
48043;DHT22;33988;47.992;8.820;2023-01-08T11:22:02;10.60;67.20
48043;DHT22;33988;47.992;8.820;2023-01-08T11:29:50;10.70;67.10
48043;DHT22;33988;47.992;8.820;2023-01-08T11:35:17;10.80;67.10
48043;DHT22;33988;47.992;8.820;2023-01-08T11:38:00;10.80;67.10
48043;DHT22;33988;47.992;8.820;2023-01-08T11:49:25;10.80;67.40
48043;DHT22;33988;47.992;8.820;2023-01-08T11:54:54;11.00;67.40
48043;DHT22;33988;47.992;8.820;2023-01-08T11:58:23;10.80;67.70
48043;DHT22;33988;47.992;8.820;2023-01-08T12:09:17;11.10;67.20
48043;DHT22;33988;47.992;8.820;2023-01-08T12:18:02;11.10;67.40
48043;DHT22;33988;47.992;8.820;2023-01-08T12:32:32;11.20;67.40
48043;DHT22;33988;47.992;8.820;2023-01-08T12:35:17;11.20;67.20
48043;DHT22;33988;47.992;8.820;2023-01-08T12:40:29;11.30;67.40
48043;DHT22;33988;47.992;8.820;2023-01-08T12:43:07;11.30;67.40
48043;DHT22;33988;47.992;8.820;2023-01-08T12:45:45;11.30;68.30
48043;DHT22;33988;47.992;8.820;2023-01-08T12:48:19;11.40;67.60
48043;DHT22;33988;47.992;8.820;2023-01-08T13:02:36;11.50;67.80
48043;DHT22;33988;47.992;8.820;2023-01-08T13:05:34;11.60;67.80
48043;DHT22;33988;47.992;8.820;2023-01-08T13:08:36;11.60;67.70
48043;DHT22;33988;47.992;8.820;2023-01-08T13:11:05;11.70;67.60
48043;DHT22;33988;47.992;8.820;2023-01-08T13:13:39;11.70;67.50
48043;DHT22;33988;47.992;8.820;2023-01-08T13:18:38;11.80;67.30
48043;DHT22;33988;47.992;8.820;2023-01-08T13:21:09;11.90;67.20
48043;DHT22;33988;47.992;8.820;2023-01-08T13:23:37;11.90;67.10
48043;DHT22;33988;47.992;8.820;2023-01-08T13:26:09;11.90;67.10
48043;DHT22;33988;47.992;8.820;2023-01-08T13:28:44;12.00;67.00
48043;DHT22;33988;47.992;8.820;2023-01-08T13:33:50;12.00;66.90
48043;DHT22;33988;47.992;8.820;2023-01-08T13:41:40;12.00;67.00
48043;DHT22;33988;47.992;8.820;2023-01-08T13:44:34;12.10;67.70
48043;DHT22;33988;47.992;8.820;2023-01-08T13:47:14;12.10;66.80
48043;DHT22;33988;47.992;8.820;2023-01-08T13:49:51;12.10;66.80
48043;DHT22;33988;47.992;8.820;2023-01-08T13:52:44;12.20;66.70
48043;DHT22;33988;47.992;8.820;2023-01-08T13:55:15;12.10;66.70
48043;DHT22;33988;47.992;8.820;2023-01-08T13:58:04;12.10;66.60
48043;DHT22;33988;47.992;8.820;2023-01-08T14:08:58;12.20;66.60
48043;DHT22;33988;47.992;8.820;2023-01-08T14:11:35;12.20;66.70
48043;DHT22;33988;47.992;8.820;2023-01-08T14:14:16;12.20;66.70
48043;DHT22;33988;47.992;8.820;2023-01-08T14:16:46;12.20;66.80
48043;DHT22;33988;47.992;8.820;2023-01-08T14:19:24;12.30;66.80
48043;DHT22;33988;47.992;8.820;2023-01-08T14:21:56;12.30;66.70
48043;DHT22;33988;47.992;8.820;2023-01-08T14:24:26;12.30;66.80
48043;DHT22;33988;47.992;8.820;2023-01-08T14:26:57;12.30;66.70
48043;DHT22;33988;47.992;8.820;2023-01-08T14:29:32;12.30;66.60
48043;DHT22;33988;47.992;8.820;2023-01-08T14:32:02;12.30;66.60
48043;DHT22;33988;47.992;8.820;2023-01-08T14:34:36;12.30;66.40
48043;DHT22;33988;47.992;8.820;2023-01-08T14:37:12;12.30;66.20
48043;DHT22;33988;47.992;8.820;2023-01-08T14:39:40;12.20;66.10
48043;DHT22;33988;47.992;8.820;2023-01-08T14:47:49;12.10;66.20
48043;DHT22;33988;47.992;8.820;2023-01-08T14:50:18;12.00;66.30
48043;DHT22;33988;47.992;8.820;2023-01-08T14:53:03;12.00;66.30
48043;DHT22;33988;47.992;8.820;2023-01-08T14:55:35;11.90;66.20
48043;DHT22;33988;47.992;8.820;2023-01-08T14:58:15;11.90;66.20
48043;DHT22;33988;47.992;8.820;2023-01-08T15:00:51;11.80;66.20
48043;DHT22;33988;47.992;8.820;2023-01-08T15:03:30;11.80;66.30
48043;DHT22;33988;47.992;8.820;2023-01-08T15:06:00;11.70;66.30
48043;DHT22;33988;47.992;8.820;2023-01-08T15:13:49;11.70;66.50
48043;DHT22;33988;47.992;8.820;2023-01-08T15:19:16;11.70;66.50
48043;DHT22;33988;47.992;8.820;2023-01-08T15:21:55;11.70;66.40
48043;DHT22;33988;47.992;8.820;2023-01-08T15:24:34;11.60;66.20
48043;DHT22;33988;47.992;8.820;2023-01-08T15:27:14;11.60;66.20
48043;DHT22;33988;47.992;8.820;2023-01-08T15:29:52;11.60;66.20
48043;DHT22;33988;47.992;8.820;2023-01-08T15:32:37;11.50;66.00
48043;DHT22;33988;47.992;8.820;2023-01-08T15:35:16;11.50;66.20
48043;DHT22;33988;47.992;8.820;2023-01-08T15:37:46;11.50;66.30
48043;DHT22;33988;47.992;8.820;2023-01-08T15:40:15;11.50;66.30
48043;DHT22;33988;47.992;8.820;2023-01-08T15:42:42;11.30;66.50
48043;DHT22;33988;47.992;8.820;2023-01-08T15:45:29;11.40;66.40
48043;DHT22;33988;47.992;8.820;2023-01-08T15:47:59;11.40;66.40
48043;DHT22;33988;47.992;8.820;2023-01-08T15:50:27;11.40;66.50
48043;DHT22;33988;47.992;8.820;2023-01-08T15:52:54;11.40;66.50
48043;DHT22;33988;47.992;8.820;2023-01-08T15:55:23;11.40;66.60
48043;DHT22;33988;47.992;8.820;2023-01-08T15:57:50;11.40;66.50
48043;DHT22;33988;47.992;8.820;2023-01-08T16:00:21;11.40;66.50
48043;DHT22;33988;47.992;8.820;2023-01-08T16:02:51;11.40;66.60
48043;DHT22;33988;47.992;8.820;2023-01-08T16:05:27;11.40;66.60
48043;DHT22;33988;47.992;8.820;2023-01-08T16:07:58;11.40;66.60
48043;DHT22;33988;47.992;8.820;2023-01-08T16:10:28;11.40;66.50
48043;DHT22;33988;47.992;8.820;2023-01-08T16:12:57;11.30;66.30
48043;DHT22;33988;47.992;8.820;2023-01-08T16:15:30;11.30;66.30
48043;DHT22;33988;47.992;8.820;2023-01-08T16:17:57;11.20;66.30
48043;DHT22;33988;47.992;8.820;2023-01-08T16:20:26;11.20;66.40
48043;DHT22;33988;47.992;8.820;2023-01-08T16:22:55;11.20;66.50
48043;DHT22;33988;47.992;8.820;2023-01-08T16:25:26;11.20;66.60
48043;DHT22;33988;47.992;8.820;2023-01-08T16:28:00;11.20;66.70
48043;DHT22;33988;47.992;8.820;2023-01-08T16:30:30;11.10;66.70
48043;DHT22;33988;47.992;8.820;2023-01-08T16:32:56;11.20;66.80
48043;DHT22;33988;47.992;8.820;2023-01-08T16:35:23;11.20;66.80
48043;DHT22;33988;47.992;8.820;2023-01-08T16:37:50;11.10;66.70
48043;DHT22;33988;47.992;8.820;2023-01-08T16:40:21;11.10;66.80
48043;DHT22;33988;47.992;8.820;2023-01-08T16:42:48;11.10;66.80
48043;DHT22;33988;47.992;8.820;2023-01-08T16:45:17;11.00;66.80
48043;DHT22;33988;47.992;8.820;2023-01-08T16:47:46;11.00;66.90
48043;DHT22;33988;47.992;8.820;2023-01-08T16:50:15;10.90;66.90
48043;DHT22;33988;47.992;8.820;2023-01-08T16:52:42;10.90;67.00
48043;DHT22;33988;47.992;8.820;2023-01-08T16:55:09;10.90;67.10
48043;DHT22;33988;47.992;8.820;2023-01-08T16:57:39;11.00;67.20
48043;DHT22;33988;47.992;8.820;2023-01-08T17:00:08;10.90;67.20
48043;DHT22;33988;47.992;8.820;2023-01-08T17:02:38;10.80;67.40
48043;DHT22;33988;47.992;8.820;2023-01-08T17:05:05;10.90;67.30
48043;DHT22;33988;47.992;8.820;2023-01-08T17:07:32;11.00;67.30
48043;DHT22;33988;47.992;8.820;2023-01-08T17:10:02;11.00;67.20
48043;DHT22;33988;47.992;8.820;2023-01-08T17:12:30;11.00;67.30
48043;DHT22;33988;47.992;8.820;2023-01-08T17:14:59;11.00;67.20
48043;DHT22;33988;47.992;8.820;2023-01-08T17:17:26;11.00;67.20
48043;DHT22;33988;47.992;8.820;2023-01-08T17:19:53;11.00;67.30
48043;DHT22;33988;47.992;8.820;2023-01-08T17:22:22;11.00;68.10
48043;DHT22;33988;47.992;8.820;2023-01-08T17:24:49;10.90;67.20
48043;DHT22;33988;47.992;8.820;2023-01-08T17:27:21;10.90;67.30
48043;DHT22;33988;47.992;8.820;2023-01-08T17:29:50;10.90;67.40
48043;DHT22;33988;47.992;8.820;2023-01-08T17:32:17;10.80;67.40
48043;DHT22;33988;47.992;8.820;2023-01-08T17:34:47;10.80;67.50
48043;DHT22;33988;47.992;8.820;2023-01-08T17:37:16;10.80;67.60
48043;DHT22;33988;47.992;8.820;2023-01-08T17:39:47;10.80;67.70
48043;DHT22;33988;47.992;8.820;2023-01-08T17:42:16;10.80;67.70
48043;DHT22;33988;47.992;8.820;2023-01-08T17:44:56;10.80;67.70
48043;DHT22;33988;47.992;8.820;2023-01-08T17:47:31;10.80;67.80
48043;DHT22;33988;47.992;8.820;2023-01-08T17:50:03;10.80;67.80
48043;DHT22;33988;47.992;8.820;2023-01-08T17:52:35;10.60;68.10
48043;DHT22;33988;47.992;8.820;2023-01-08T17:55:05;10.70;68.00
48043;DHT22;33988;47.992;8.820;2023-01-08T17:57:35;10.80;68.00
48043;DHT22;33988;47.992;8.820;2023-01-08T18:00:02;10.80;68.00
48043;DHT22;33988;47.992;8.820;2023-01-08T18:02:30;10.90;68.00
48043;DHT22;33988;47.992;8.820;2023-01-08T18:04:57;10.90;68.00
48043;DHT22;33988;47.992;8.820;2023-01-08T18:07:27;10.90;68.00
48043;DHT22;33988;47.992;8.820;2023-01-08T18:09:56;10.90;68.00